Flight Track Log - Related Links

Times and Time Zones

All times are in EDT time to prevent confusion due to time zone crossing. See the SWA525 flight status page for this flight to view local times or setup timezone preferences in your user account.


Time Position Orientation Groundspeed Altitude Reporting Facility
EDT Latitude Longitude Course Direction KTS MPH feet Rate Location/Type
Wed 08:19:00 PM 28.4167 -81.5178 270° West  Level FlightAware Approximate
Wed 08:19:41 PM 28.5667 -81.3667 270° West 294 338 6,400  Level Orlando TRACON
Wed 08:20:35 PM 28.5500 -81.4500 257° West 289 333 9,800 3,017 Climbing Orlando TRACON
Wed 08:22:40 PM 28.5489 -81.6661 270° West 334 384 15,400 2,465 Climbing Jacksonville Center
Wed 08:23:40 PM 28.5478 -81.7794 269° West 350 403 17,400 1,867 Climbing Jacksonville Center
Wed 08:25:40 PM 28.5017 -82.0208 258° West 384 442 21,000 1,200 Climbing Jacksonville Center
Wed 08:26:40 PM 28.4775 -82.1439 257° West 395 455 21,000 700 Level Jacksonville Center
Wed 08:27:40 PM 28.4467 -82.2644 254° West 403 464 22,400 1,600 Climbing Jacksonville Center
Wed 08:28:40 PM 28.4181 -82.3897 255° West 403 464 24,200 1,600 Climbing Jacksonville Center
Wed 08:29:40 PM 28.4603 -82.5031 293° West 389 448 25,600 1,550 Climbing Jacksonville Center
Wed 08:30:40 PM 28.5669 -82.5736 330° Northwest 364 419 27,300 1,700 Climbing Jacksonville Center
Wed 08:31:40 PM 28.6736 -82.6511 327° Northwest 401 461 29,000 1,600 Climbing Jacksonville Center
Wed 08:32:40 PM 28.7781 -82.7267 328° Northwest 434 499 30,500 1,450 Climbing Jacksonville Center
Wed 08:33:40 PM 28.8867 -82.8047 328° Northwest 452 520 31,900 1,500 Climbing Jacksonville Center
Wed 08:34:40 PM 28.9953 -82.8856 327° Northwest 458 527 33,500 1,250 Climbing Jacksonville Center
Wed 08:35:40 PM 29.1036 -82.9639 328° Northwest 463 533 34,400 1,250 Climbing Jacksonville Center
Wed 08:36:40 PM 29.2100 -83.0400 328° Northwest 463 533 36,000 800 Climbing Jacksonville Center
Wed 08:37:40 PM 29.3122 -83.1164 327° Northwest 457 526 36,000  Level Jacksonville Center
Wed 08:38:40 PM 29.4164 -83.1931 327° Northwest 452 520 36,000 -250 Level Jacksonville Center
Wed 08:39:40 PM 29.5228 -83.2697 328° Northwest 452 520 35,500 -750 Descending Jacksonville Center
Wed 08:40:40 PM 29.6269 -83.3489 327° Northwest 452 520 34,500 -750 Descending Jacksonville Center
Wed 08:41:40 PM 29.7456 -83.4356 328° Northwest 452 520 34,000 -250 Descending Jacksonville Center
Wed 08:42:40 PM 29.8558 -83.5178 327° Northwest 464 534 34,000  Level Jacksonville Center
Wed 08:43:40 PM 29.9639 -83.5975 327° Northwest 464 534 34,000  Level Jacksonville Center
Wed 08:44:40 PM 30.0719 -83.6775 327° Northwest 464 534 34,000  Level Jacksonville Center
Wed 08:45:40 PM 30.1842 -83.7600 328° Northwest 464 534 34,000  Level Jacksonville Center
Wed 08:46:40 PM 30.2922 -83.8403 327° Northwest 464 534 34,000  Level Jacksonville Center
Wed 08:47:40 PM 30.4022 -83.9233 327° Northwest 464 534 34,000  Level Jacksonville Center
Wed 08:48:40 PM 30.5122 -84.0067 327° Northwest 464 534 34,000  Level Jacksonville Center
Wed 08:49:40 PM 30.6097 -84.0778 328° Northwest 464 534 34,000  Level Jacksonville Center
Wed 08:50:40 PM 30.7153 -84.1611 326° Northwest 464 534 34,000  Level Jacksonville Center
Wed 08:51:40 PM 30.8253 -84.2425 328° Northwest 464 534 34,000  Level Jacksonville Center
Wed 08:52:40 PM 30.9350 -84.3264 327° Northwest 464 534 34,000  Level Jacksonville Center
Wed 08:53:40 PM 31.0406 -84.4106 326° Northwest 464 534 34,000  Level Jacksonville Center
Wed 08:55:16 PM 31.2156 -84.5414 327° Northwest 464 534 34,000  Level Atlanta Center
Wed 08:56:16 PM 31.3236 -84.6272 326° Northwest 464 534 34,000  Level Atlanta Center
Wed 08:57:16 PM 31.4358 -84.7131 327° Northwest 464 534 34,000  Level Atlanta Center
Wed 08:58:16 PM 31.5419 -84.7942 327° Northwest 464 534 34,000  Level Atlanta Center
Wed 08:59:16 PM 31.6519 -84.8806 326° Northwest 464 534 34,000  Level Atlanta Center
Wed 09:00:16 PM 31.7661 -84.9669 327° Northwest 471 542 34,000  Level Atlanta Center
Wed 09:01:16 PM 31.8739 -85.0539 326° Northwest 471 542 34,000  Level Atlanta Center
Wed 09:02:16 PM 31.9942 -85.1458 327° Northwest 471 542 34,000  Level Atlanta Center
Wed 09:03:16 PM 32.1061 -85.2331 327° Northwest 471 542 34,000  Level Atlanta Center
Wed 09:04:16 PM 32.2158 -85.3178 327° Northwest 471 542 34,000  Level Atlanta Center
Wed 09:05:16 PM 32.3214 -85.4006 326° Northwest 466 536 34,000  Level Atlanta Center
Wed 09:06:16 PM 32.4311 -85.4883 326° Northwest 466 536 34,000  Level Atlanta Center
Wed 09:07:16 PM 32.5386 -85.5714 327° Northwest 466 536 34,000  Level Atlanta Center
Wed 09:08:16 PM 32.6439 -85.6569 326° Northwest 460 529 34,000  Level Atlanta Center
Wed 09:09:16 PM 32.7514 -85.7431 326° Northwest 460 529 34,000  Level Atlanta Center
Wed 09:10:16 PM 32.8567 -85.8267 326° Northwest 460 529 34,000  Level Atlanta Center
Wed 09:11:16 PM 32.9597 -85.9106 326° Northwest 460 529 34,000  Level Atlanta Center
Wed 09:12:16 PM 33.0628 -85.9944 326° Northwest 453 521 34,000  Level Atlanta Center
Wed 09:13:16 PM 33.1639 -86.0736 327° Northwest 453 521 34,000  Level Atlanta Center
Wed 09:14:16 PM 33.2647 -86.1556 326° Northwest 443 510 34,000  Level Atlanta Center
Wed 09:15:16 PM 33.3633 -86.2375 325° Northwest 443 510 34,000  Level Atlanta Center
Wed 09:16:16 PM 33.4642 -86.3197 326° Northwest 438 504 34,000  Level Atlanta Center
Wed 09:17:16 PM 33.5650 -86.3997 327° Northwest 438 504 34,000  Level Atlanta Center
Wed 09:18:16 PM 33.6617 -86.4797 325° Northwest 438 504 34,000  Level Atlanta Center
Wed 09:19:16 PM 33.7622 -86.5625 326° Northwest 437 503 34,000  Level Atlanta Center
Wed 09:20:16 PM 33.8606 -86.6431 326° Northwest 437 503 34,000  Level Atlanta Center
Wed 09:21:57 PM 34.0167 -86.7761 325° Northwest 436 502 34,000  Level Memphis Center
Wed 09:22:57 PM 34.1169 -86.8572 326° Northwest 436 502 34,000  Level Memphis Center
Wed 09:23:57 PM 34.2264 -86.9583 323° Northwest 442 509 34,000  Level Memphis Center
Wed 09:24:57 PM 34.3267 -87.0422 325° Northwest 442 509 34,000  Level Memphis Center
Wed 09:25:57 PM 34.4183 -87.1144 327° Northwest 437 503 34,000  Level Memphis Center
Wed 09:26:57 PM 34.5164 -87.1939 326° Northwest 437 503 34,000  Level Memphis Center
Wed 09:27:57 PM 34.6167 -87.2833 324° Northwest 432 497 34,000  Level Memphis Center
Wed 09:28:57 PM 34.7167 -87.3631 327° Northwest 444 511 34,000  Level Memphis Center
Wed 09:29:57 PM 34.8189 -87.4531 324° Northwest 444 511 34,000  Level Memphis Center
Wed 09:30:57 PM 34.9189 -87.5358 326° Northwest 444 511 34,000  Level Memphis Center
Wed 09:31:57 PM 35.0275 -87.6311 324° Northwest 439 505 34,000  Level Memphis Center
Wed 09:32:57 PM 35.1294 -87.7167 326° Northwest 445 512 34,000  Level Memphis Center
Wed 09:33:57 PM 35.2206 -87.7900 327° Northwest 445 512 34,000  Level Memphis Center
Wed 09:34:57 PM 35.3206 -87.8786 324° Northwest 445 512 34,000  Level Memphis Center
Wed 09:35:57 PM 35.4331 -87.9797 324° Northwest 445 512 34,000  Level Memphis Center
Wed 09:36:57 PM 35.5347 -88.0658 325° Northwest 445 512 34,000  Level Memphis Center
Wed 09:37:57 PM 35.6281 -88.1478 324° Northwest 445 512 34,000  Level Memphis Center
Wed 09:38:57 PM 35.7294 -88.2269 328° Northwest 445 512 34,000  Level Memphis Center
Wed 09:39:57 PM 35.8311 -88.3164 325° Northwest 445 512 34,000  Level Memphis Center
Wed 09:40:57 PM 35.9325 -88.4061 324° Northwest 450 518 34,000  Level Memphis Center
Wed 09:41:57 PM 36.0361 -88.4961 325° Northwest 450 518 34,000  Level Memphis Center
Wed 09:42:57 PM 36.1375 -88.5889 324° Northwest 450 518 34,000  Level Memphis Center
Wed 09:43:57 PM 36.2389 -88.6767 325° Northwest 455 524 34,000  Level Memphis Center
Wed 09:44:57 PM 36.3422 -88.7672 325° Northwest 455 524 34,000  Level Memphis Center
Wed 09:45:57 PM 36.4456 -88.8633 323° Northwest 455 524 34,000  Level Memphis Center
Wed 09:46:57 PM 36.5467 -88.9544 324° Northwest 455 524 34,000  Level Memphis Center
Wed 09:47:57 PM 36.6497 -89.0458 325° Northwest 455 524 34,000  Level Memphis Center
Wed 09:48:57 PM 36.7531 -89.1397 324° Northwest 455 524 34,000 -33 Level Memphis Center
Wed 09:50:57 PM 36.9475 -89.3167 324° Northwest 448 516 33,900 -1,028 Descending Kansas City Center
Wed 09:51:58 PM 37.0478 -89.4081 324° Northwest 447 514 30,900 -3,024 Descending Kansas City Center
Wed 09:53:00 PM 37.1636 -89.5161 323° Northwest 437 503 27,700 -2,390 Descending Kansas City Center
Wed 09:54:01 PM 37.2594 -89.5961 326° Northwest 421 484 26,000 -829 Descending Kansas City Center
Wed 09:55:03 PM 37.3647 -89.6508 338° Northwest 410 472 26,000  Level Kansas City Center
Wed 09:56:04 PM 37.4775 -89.7111 337° Northwest 433 498 26,000  Level Kansas City Center
Wed 09:57:05 PM 37.5833 -89.7694 336° Northwest 448 516 26,000  Level Kansas City Center
Wed 09:58:07 PM 37.6992 -89.8314 337° Northwest 453 521 26,000 -390 Level Kansas City Center
Wed 09:59:08 PM 37.8369 -89.9064 337° Northwest 449 517 25,200 -1,512 Descending Kansas City Center
Wed 10:00:10 PM 37.9481 -89.9672 337° Northwest 440 506 22,900 -2,488 Descending Kansas City Center
Wed 10:01:11 PM 38.0603 -90.0286 337° Northwest 412 474 20,100 -2,459 Descending Kansas City Center
Wed 10:02:12 PM 38.1594 -90.0864 335° Northwest 395 455 17,900 -2,244 Descending Kansas City Center
Wed 10:03:14 PM 38.2533 -90.1392 336° Northwest 373 429 15,500 -2,244 Descending Kansas City Center
Wed 10:04:15 PM 38.3461 -90.1894 337° Northwest 363 418 13,300 -2,016 Descending Kansas City Center
Wed 10:05:16 PM 38.4317 -90.2389 336° Northwest 339 390 11,400 -1,561 Descending Kansas City Center
Wed 10:06:18 PM 38.5161 -90.2869 336° Northwest 335 386 10,100 -1,171 Descending Kansas City Center
Wed 10:07:19 PM 38.5867 -90.3269 336° Northwest 287 330 9,000 -1,180 Descending Kansas City Center
Wed 10:08:20 PM 38.6575 -90.3833 328° Northwest 281 323 7,700 -1,073 Descending Kansas City Center
Wed 10:09:22 PM 38.6917 -90.4522 302° West 277 319 6,800 -1,073 Descending Kansas City Center
Wed 10:10:23 PM 38.7297 -90.5311 302° West 263 303 5,500 -1,279 Descending Kansas City Center
Wed 10:11:24 PM 38.7800 -90.6169 307° West 259 298 4,200 -1,220 Descending Kansas City Center
Wed 10:12:26 PM 38.8258 -90.5697 39° Northeast 247 284 3,000 -585 Descending Kansas City Center
Wed 10:13:27 PM 38.8244 -90.5083 92° East 206 237 3,000 -393 Level Kansas City Center
Wed 10:14:28 PM 38.8011 -90.4650 125° Southeast 171 197 2,200 -732 Descending Kansas City Center
Wed 10:15:30 PM 38.7808 -90.4242 122° Southeast 149 171 1,500 -634 Descending Kansas City Center
Wed 10:16:31 PM 38.7633 -90.3892 123° Southeast 130 150 900 -492 Descending Kansas City Center
Wed 10:17:32 PM 38.7464 -90.3569 124° Southeast 125 144 500 -393 Descending Kansas City Center

Login

Don't have an account? Register now (free) for customized features, flight alerts, and more!